Latest Weather Observations for Montague Island

IDN60801

Issued at 8:52 pm EST Wednesday 19 September 2018 (issued every 10 minutes, with the page automatically refreshed every 10 minutes)

About weather observations | Map of weather stations | Latest weather observations for NSW | Other Formats
Station Details ID: 069017 Name: MONTAGUE ISLAND LIGHTHOUSE Lat: -36.25 Lon: 150.23 Height: 52.0 m
Data from the previous 72 hours. | See also: Recent months at Montague Island
Date/Time
EST
Temp
°C
App
Temp
°C
Dew
Point
°C
Rel
Hum
%
Delta-T
°C
Wind Press
QNH
hPa
Press
MSL
hPa
Rain since
9am
mm
Dir  Spd
km/h
Gust
km/h
Spd
kts
Gust
kts
19/08:30pm 13.1 6.1 6.2 63 3.3 S 32 41 17 22 1014.0 1013.9 0.0
19/08:00pm 13.2 4.6 6.5 64 3.2 S 41 48 22 26 1013.4 1013.3 0.0
19/07:30pm 13.3 4.1 6.4 63 3.3 S 44 56 24 30 1012.8 1012.8 0.0
19/07:00pm 13.6 6.0 7.6 67 3.0 S 37 52 20 28 1012.4 1012.4 0.0
19/06:30pm 13.6 5.6 7.6 67 3.0 S 39 52 21 28 1012.0 1012.0 0.0
19/06:00pm 13.8 7.2 7.6 66 3.1 SSE 32 43 17 23 1011.8 1011.8 0.0
19/05:30pm 13.9 8.0 9.1 73 2.4 SSE 30 37 16 20 1011.1 1011.1 0.0
19/05:00pm 13.6 7.2 9.3 75 2.2 SE 33 39 18 21 1010.4 1010.4 0.0
19/04:30pm 13.3 4.7 9.0 75 2.2 SSE 44 52 24 28 1009.7 1009.7 0.0
19/04:00pm 13.8 5.9 9.3 74 2.3 SSE 41 48 22 26 1009.2 1009.2 0.0
19/03:30pm 13.5 6.2 8.8 73 2.4 SSE 37 44 20 24 1008.8 1008.8 0.0
19/03:00pm 13.8 6.3 9.3 74 2.3 SSE 39 46 21 25 1008.4 1008.4 0.0
19/02:30pm 14.3 6.3 9.1 71 2.7 S 41 52 22 28 1007.9 1007.9 0.0
19/02:00pm 14.2 5.9 10.0 76 2.2 SSE 44 54 24 29 1007.6 1007.6 0.0
19/01:30pm 14.4 5.4 10.4 77 2.1 SSE 48 56 26 30 1007.4 1007.4 0.0
19/01:00pm 14.9 7.2 10.1 73 2.5 S 41 52 22 28 1007.1 1007.1 0.0
19/12:30pm 15.3 8.1 10.7 74 2.4 S 39 48 21 26 1007.1 1007.1 0.0
19/12:00pm 16.1 9.3 10.8 71 2.8 S 37 46 20 25 1007.0 1007.0 0.0
19/11:30am 16.2 9.5 10.9 71 2.8 SSW 37 44 20 24 1007.1 1007.1 0.0
19/11:00am 15.9 8.0 10.9 72 2.7 S 43 50 23 27 1006.9 1006.9 0.0
19/10:30am 16.0 8.9 11.0 72 2.7 SSW 39 50 21 27 1007.0 1007.0 0.0
19/10:00am 15.9 9.0 11.7 76 2.3 SSW 39 48 21 26 1007.0 1007.0 0.0
19/09:30am 15.9 10.4 12.3 79 2.0 SSW 33 41 18 22 1007.1 1007.1 0.0
19/09:00am 15.9 11.6 11.9 77 2.2 SW 26 35 14 19 1007.1 1007.1 0.0
19/08:30am 15.6 13.4 12.0 79 2.0 SSW 15 17 8 9 1007.4 1007.4 0.0
19/08:00am 16.6 15.8 12.9 79 2.1 SSE 9 15 5 8 1007.5 1007.5 0.0
19/07:30am 16.1 13.2 13.0 82 1.7 S 20 24 11 13 1007.1 1007.1 0.0
19/07:00am 15.3 12.3 12.6 84 1.5 SSE 20 24 11 13 1007.1 1007.1 0.0
19/06:30am 14.2 10.5 11.4 83 1.5 S 22 26 12 14 1007.6 1007.6 0.0
19/06:00am 14.6 9.3 11.2 80 1.8 SSE 30 35 16 19 1007.3 1007.3 0.0
19/05:30am 14.3 9.8 9.9 75 2.3 S 24 30 13 16 1007.4 1007.4 0.0
19/05:00am 16.2 11.9 0.7 35 6.8 NNW 13 17 7 9 1007.1 1007.1 0.0
19/04:30am 16.3 12.5 4.0 44 5.7 NNE 13 17 7 9 1006.8 1006.8 0.0
19/04:00am 16.0 13.1 4.4 46 5.5 NW 9 17 5 9 1006.9 1006.9 0.0
19/03:30am 15.1 12.8 5.6 53 4.5 WNW 7 9 4 5 1006.9 1006.9 0.0
19/03:00am 15.0 12.8 5.5 53 4.5 NW 6 9 3 5 1006.9 1006.9 0.0
19/02:30am 13.5 11.2 7.5 67 2.9 WNW 9 13 5 7 1006.8 1006.8 0.0
19/02:00am 13.2 11.7 10.7 85 1.3 WNW 9 17 5 9 1007.0 1007.0 0.0
19/01:30am 13.5 11.2 11.9 90 0.9 NW 15 19 8 10 1007.5 1007.5 0.0
19/01:00am 14.3 10.3 12.9 91 0.8 N 26 32 14 17 1007.7 1007.7 0.0
19/12:30am 14.5 11.2 12.9 90 0.9 NNW 22 26 12 14 1008.4 1008.4 0.0
19/12:00am 14.7 12.0 13.4 92 0.7 N 20 30 11 16 1008.7 1008.7 0.0
 
Date/Time
EST
Temp
°C
App
Temp
°C
Dew
Point
°C
Rel
Hum
%
Delta-T
°C
Wind Press
QNH
hPa
Press
MSL
hPa
Rain since
9am
mm
Dir  Spd
km/h
Gust
km/h
Spd
kts
Gust
kts
18/11:30pm 14.7 13.0 13.6 93 0.6 NNW 15 20 8 11 1009.1 1009.1 0.0
18/11:00pm 14.8 13.8 13.5 92 0.7 NW 11 17 6 9 1009.4 1009.4 0.0
18/10:30pm 15.3 12.0 14.0 92 0.7 NNE 24 32 13 17 1009.5 1009.5 0.0
18/10:00pm 15.4 10.5 13.8 90 0.9 NNE 32 37 17 20 1009.8 1009.8 0.0
18/09:30pm 15.5 11.0 13.7 89 1.0 NNE 30 35 16 19 1010.1 1010.1 0.0
18/09:00pm 15.7 11.1 13.4 86 1.3 NNE 30 35 16 19 1010.2 1010.2 0.0
18/08:30pm 15.7 10.7 13.4 86 1.3 NNE 32 37 17 20 1010.3 1010.3 0.0
18/08:00pm 16.0 11.3 13.1 83 1.6 NNE 30 35 16 19 1010.5 1010.5 0.0
18/07:30pm 16.4 10.4 12.2 76 2.3 N 35 46 19 25 1010.3 1010.3 0.0
18/07:00pm 16.5 10.2 12.3 76 2.3 N 37 48 20 26 1009.9 1009.9 0.0
18/06:30pm 16.5 10.2 12.3 76 2.3 N 37 48 20 26 1009.6 1009.6 0.0
18/06:00pm 16.0 9.2 13.1 83 1.6 NNE 41 48 22 26 1009.4 1009.4 0.0
18/05:30pm 16.1 8.3 13.0 82 1.7 NNE 46 54 25 29 1008.9 1008.9 0.0
18/05:00pm 16.6 8.9 12.2 75 2.4 NNE 44 56 24 30 1008.5 1008.5 0.0
18/04:30pm 17.0 7.6 11.5 70 3.0 NNE 52 63 28 34 1008.5 1008.5 0.0
18/04:00pm 16.7 7.8 11.8 73 2.7 NNE 50 57 27 31 1008.6 1008.6 0.0
18/03:30pm 17.1 8.5 11.6 70 3.0 NNE 48 57 26 31 1008.6 1008.6 0.0
18/03:00pm 17.0 8.9 12.1 73 2.7 NNE 46 56 25 30 1008.8 1008.8 0.0
18/02:30pm 17.1 9.9 12.0 72 2.8 NNE 41 50 22 27 1009.4 1009.4 0.0
18/02:20pm 17.6 11.4 11.4 67 3.4 NNE 35 48 19 26 1009.6 1009.6 0.0
18/02:00pm 18.7 15.0 10.3 58 4.5 NE 20 28 11 15 1010.0 1010.0 0.0
18/01:30pm 19.2 15.4 9.9 55 5.0 NE 20 28 11 15 1010.5 1010.5 0.0
18/01:00pm 18.4 14.5 10.8 61 4.1 NNE 22 37 12 20 1011.1 1011.1 0.0
18/12:30pm 17.2 11.8 11.0 67 3.3 NE 30 37 16 20 1011.9 1011.9 0.0
18/12:00pm 17.2 11.1 10.6 65 3.5 NE 33 43 18 23 1012.4 1012.4 0.0
18/11:30am 16.8 11.2 10.2 65 3.5 NE 30 35 16 19 1013.4 1013.3 0.0
18/11:00am 17.3 12.5 10.2 63 3.8 NE 26 32 14 17 1014.0 1013.9 0.0
18/10:30am 17.5 13.8 10.1 62 3.9 NE 20 30 11 16 1014.7 1014.6 0.0
18/10:00am 16.7 11.2 10.5 67 3.3 NE 30 39 16 21 1014.9 1014.8 0.0
18/09:30am 16.2 10.1 9.8 66 3.4 NNE 32 37 17 20 1015.3 1015.2 0.0
18/09:00am 16.0 10.2 9.4 65 3.4 NNE 30 37 16 20 1015.6 1015.5 0.0
18/08:30am 15.7 9.8 8.9 64 3.5 N 30 37 16 20 1015.9 1015.8 0.0
18/08:00am 15.7 9.4 7.5 58 4.1 N 30 37 16 20 1016.1 1016.0 0.0
18/07:30am 15.1 9.5 8.6 65 3.3 N 28 35 15 19 1016.1 1016.0 0.0
18/07:00am 14.2 8.4 9.4 73 2.5 N 30 39 16 21 1016.0 1015.9 0.0
18/06:30am 14.1 7.8 9.1 72 2.5 NNE 32 39 17 21 1016.0 1015.9 0.0
18/06:00am 13.9 7.5 9.5 75 2.3 NNE 33 41 18 22 1015.8 1015.7 0.0
18/05:30am 13.8 8.2 10.0 78 2.0 NNE 30 35 16 19 1015.8 1015.7 0.0
18/05:00am 13.7 8.7 9.4 75 2.2 N 26 33 14 18 1015.8 1015.7 0.0
18/04:30am 13.4 7.4 8.5 72 2.5 N 30 37 16 20 1015.6 1015.5 0.0
18/04:00am 13.4 7.0 8.5 72 2.5 N 32 41 17 22 1015.6 1015.5 0.0
18/03:30am 13.5 6.9 8.4 71 2.6 N 33 43 18 23 1015.6 1015.5 0.0
18/03:00am 13.5 6.3 7.7 68 2.9 N 35 43 19 23 1015.8 1015.7 0.0
18/02:30am 13.5 7.0 8.1 70 2.7 N 32 39 17 21 1016.3 1016.2 0.0
18/02:00am 13.6 7.7 7.4 66 3.0 N 28 35 15 19 1016.6 1016.5 0.0
18/01:30am 13.5 8.0 7.7 68 2.9 N 26 35 14 19 1016.9 1016.8 0.0
18/01:00am 13.8 8.0 9.6 76 2.2 N 30 39 16 21 1017.2 1017.1 0.0
18/12:30am 13.8 7.8 10.0 78 2.0 N 32 39 17 21 1017.5 1017.4 0.0
18/12:00am 13.2 7.9 9.8 80 1.7 NNW 28 35 15 19 1017.6 1017.5 0.0
 
Date/Time
EST
Temp
°C
App
Temp
°C
Dew
Point
°C
Rel
Hum
%
Delta-T
°C
Wind Press
QNH
hPa
Press
MSL
hPa
Rain since
9am
mm
Dir  Spd
km/h
Gust
km/h
Spd
kts
Gust
kts
17/11:30pm 13.8 6.7 9.6 76 2.2 N 37 44 20 24 1017.5 1017.4 0.0
17/11:00pm 13.8 7.8 10.2 79 1.9 N 32 41 17 22 1017.9 1017.8 0.0
17/10:30pm 14.1 7.9 10.1 77 2.1 N 33 41 18 22 1018.3 1018.2 0.0
17/10:00pm 14.3 7.4 10.3 77 2.1 N 37 50 20 27 1018.4 1018.3 0.0
17/09:30pm 14.4 6.7 10.0 75 2.3 N 41 54 22 29 1018.6 1018.5 0.0
17/09:00pm 14.5 4.6 9.9 74 2.4 NNE 52 59 28 32 1018.6 1018.5 0.0
17/08:30pm 14.6 4.8 10.0 74 2.4 NNE 52 63 28 34 1018.6 1018.5 0.0
17/08:00pm 14.6 4.8 10.0 74 2.4 NNE 52 63 28 34 1018.8 1018.8 0.0
17/07:30pm 14.7 4.0 9.7 72 2.6 NNE 56 63 30 34 1018.6 1018.5 0.0
17/07:00pm 14.6 4.0 9.8 73 2.5 NNE 56 70 30 38 1018.3 1018.2 0.0
17/06:43pm 14.5 5.3 9.5 72 2.6 NNE 48 69 26 37 1018.2 1018.1 0.0
17/06:30pm 14.5 5.0 9.7 73 2.5 NNE 50 67 27 36 1018.2 1018.1 0.0
17/06:28pm 14.6 4.8 10.0 74 2.4 NNE 52 70 28 38 1018.2 1018.1 0.0
17/06:00pm 14.5 4.2 9.7 73 2.5 NNE 54 67 29 36 1018.2 1018.1 0.0
17/05:30pm 14.3 4.6 8.9 70 2.7 NNE 50 63 27 34 1018.0 1017.9 0.0
17/05:00pm 14.4 4.3 8.8 69 2.8 NNE 52 63 28 34 1017.9 1017.8 0.0
17/04:30pm 14.5 4.7 8.5 67 3.0 NNE 50 59 27 32 1018.1 1018.0 0.0
17/04:00pm 14.6 5.6 8.8 68 2.9 NNE 46 56 25 30 1018.2 1018.1 0.0
17/03:30pm 14.8 6.9 9.2 69 2.9 NNE 41 52 22 28 1018.6 1018.5 0.0
17/03:00pm 14.7 6.0 8.6 67 3.1 NNE 44 54 24 29 1018.6 1018.5 0.0
17/02:30pm 14.8 7.0 8.3 65 3.3 NE 39 50 21 27 1019.0 1019.0 0.0
17/02:00pm 14.7 6.1 8.0 64 3.3 NE 43 50 23 27 1019.4 1019.4 0.0
17/01:30pm 14.9 6.8 8.6 66 3.2 NE 41 50 22 27 1019.6 1019.6 0.0
17/01:00pm 14.8 7.0 8.3 65 3.3 NE 39 50 21 27 1020.0 1020.0 0.0
17/12:30pm 14.7 7.2 8.0 64 3.4 NE 37 44 20 24 1020.6 1020.6 0.0
17/12:00pm 14.6 7.3 7.2 61 3.6 NNE 35 44 19 24 1021.3 1021.3 0.0
17/11:30am 14.5 7.2 5.6 55 4.2 NNE 33 43 18 23 1022.1 1022.1 0.0
17/11:00am 14.3 7.2 6.4 59 3.8 NNE 33 44 18 24 1022.5 1022.5 0.0
17/10:30am 14.2 8.0 6.3 59 3.8 NNE 28 33 15 18 1023.1 1023.1 0.0
17/10:00am 13.3 8.3 6.4 63 3.3 NNE 22 28 12 15 1023.4 1023.4 0.0
17/09:30am 13.6 10.2 6.0 60 3.6 N 13 22 7 12 1023.8 1023.8 0.0
17/09:00am 12.1 8.1 4.8 61 3.3 NNW 15 22 8 12 1024.0 1024.0 0.0
17/08:30am 11.9 8.8 5.5 65 3.0 NNW 11 15 6 8 1024.1 1024.1 0.0
17/08:00am 11.4 9.0 5.3 66 2.8 NW 7 9 4 5 1024.2 1024.2 0.0
17/07:30am 10.7 8.2 4.8 67 2.7 NW 7 11 4 6 1023.9 1023.9 0.0
17/07:00am 10.1 6.9 5.1 71 2.3 WNW 11 15 6 8 1023.8 1023.8 0.0
17/06:30am 9.7 6.9 5.3 74 2.0 WNW 9 11 5 6 1023.7 1023.7 0.0
17/06:00am 9.3 6.6 5.7 78 1.6 WNW 9 11 5 6 1023.5 1023.5 0.0
17/05:30am 9.5 7.2 5.9 78 1.7 NW 7 11 4 6 1023.3 1023.3 0.0
17/05:00am 9.5 7.3 6.0 79 1.6 WNW 7 9 4 5 1023.1 1023.1 0.0
17/04:30am 10.0 8.0 6.3 78 1.7 WNW 6 9 3 5 1023.1 1023.1 0.0
17/04:00am 9.9 7.7 6.1 77 1.8 NW 7 9 4 5 1022.8 1022.8 0.0
17/03:30am 9.9 7.6 5.9 76 1.8 WNW 7 11 4 6 1022.5 1022.5 0.0
17/03:00am 9.7 7.4 5.5 75 1.9 WNW 7 11 4 6 1022.5 1022.5 0.0
17/02:30am 9.5 6.3 5.1 74 2.0 W 11 13 6 7 1022.7 1022.7 0.0
17/02:00am 9.6 6.4 5.0 73 2.1 W 11 13 6 7 1022.9 1022.9 0.0
17/01:30am 9.9 7.6 5.5 74 2.0 W 7 9 4 5 1023.1 1023.1 0.0
17/01:00am 10.5 7.6 4.9 68 2.5 SW 9 15 5 8 1023.1 1023.1 0.0
17/12:30am 10.5 7.2 4.4 66 2.7 S 11 15 6 8 1023.1 1023.1 0.0
17/12:00am 10.4 7.1 4.5 67 2.6 SW 11 17 6 9 1023.1 1023.1 0.0
 
Date/Time
EST
Temp
°C
App
Temp
°C
Dew
Point
°C
Rel
Hum
%
Delta-T
°C
Wind Press
QNH
hPa
Press
MSL
hPa
Rain since
9am
mm
Dir  Spd
km/h
Gust
km/h
Spd
kts
Gust
kts
16/11:30pm 10.7 7.1 4.8 67 2.7 WSW 13 19 7 10 1023.1 1023.1 0.0
16/11:00pm 10.9 6.9 5.0 67 2.7 WSW 15 19 8 10 1023.2 1023.2 0.0
16/10:30pm 11.4 6.7 5.1 65 2.9 SSW 19 24 10 13 1023.2 1023.2 0.0
16/10:00pm 11.5 6.5 4.7 63 3.1 SSW 20 26 11 14 1023.0 1023.0 0.0
16/09:30pm 11.8 6.3 3.8 58 3.6 S 22 28 12 15 1022.8 1022.8 0.0
16/09:00pm 12.0 5.3 3.8 57 3.7 S 28 33 15 18 1022.3 1022.3 0.0

Other Formats:

Comma delimited format used in spreadsheet applications
http://www.bom.gov.au/fwo/IDN60801/IDN60801.94939.axf

JavaScript Object Notation format (JSON) in row-major order
http://www.bom.gov.au/fwo/IDN60801/IDN60801.94939.json